Time;durP1;ratioP1;P1;durP2;ratioP2;P2;SDS_P1;SDS_P2;PMS_P1;PMS_P2;Temp;Humidity;BMP_temperature;BMP_pressure;BME280_temperature;BME280_humidity;BME280_pressure;Samples;Min_cycle;Max_cycle;Signal;HPM_P1;HPM_P2
2022/03/27 00:01:56;;;;;;;;;;;6.10;99.90;;;;;;2135430;67;20052;-74
2022/03/27 00:04:37;;;;;;;;;;;6.10;99.90;;;;;;2147694;66;20522;-72
2022/03/27 00:07:19;;;;;;;;;;;6.20;99.90;;;;;;2140248;67;20192;-73
2022/03/27 00:10:00;;;;;;;;;;;6.20;99.90;;;;;;2133171;67;20052;-73
2022/03/27 00:12:42;;;;;;;;;;;6.30;99.90;;;;;;2128630;67;20201;-73
2022/03/27 00:15:24;;;;;;;;;;;6.40;99.90;;;;;;2132927;67;20203;-73
2022/03/27 00:18:05;;;;;;;;;;;6.60;99.90;;;;;;2140514;67;20282;-73
2022/03/27 00:20:47;;;;;;;;;;;6.60;99.90;;;;;;2140417;66;20054;-73
2022/03/27 00:23:28;;;;;;;;;;;7.10;99.90;;;;;;2140316;67;20147;-73
2022/03/27 00:26:10;;;;;;;;;;;6.70;99.90;;;;;;2147555;66;20051;-73
2022/03/27 00:28:51;;;;;;;;;;;6.70;99.90;;;;;;2146700;66;20143;-73
2022/03/27 00:31:36;;;;;;;;;;;6.80;99.90;;;;;;2140572;66;20522;-73
2022/03/27 00:34:19;;;;;;;;;;;6.80;99.90;;;;;;2137135;66;20282;-74
2022/03/27 00:37:01;;;;;;;;;;;6.90;99.90;;;;;;2147864;66;20073;-74
2022/03/27 00:39:42;;;;;;;;;;;6.90;99.90;;;;;;2149893;66;20066;-74
2022/03/27 00:42:24;;;;;;;;;;;6.80;99.90;;;;;;2151039;66;20644;-74
2022/03/27 00:45:07;;;;;;;;;;;7.60;99.90;;;;;;2149308;66;20304;-74
2022/03/27 00:47:48;;;;;;;;;;;6.80;99.90;;;;;;2145911;66;20067;-73
2022/03/27 00:50:31;;;;;;;;;;;6.80;99.90;;;;;;2144756;66;20074;-73
2022/03/27 00:53:13;;;;;;;;;;;6.70;99.90;;;;;;2154647;66;20239;-73
2022/03/27 00:55:55;;;;;;;;;;;6.70;99.90;;;;;;2163804;66;20560;-73
2022/03/27 00:58:38;;;;;;;;;;;6.60;99.90;;;;;;2154037;66;20152;-73
2022/03/27 01:01:24;;;;;;;;;;;7.20;99.90;;;;;;2143946;66;20150;-73
2022/03/27 01:04:10;;;;;;;;;;;6.60;99.90;;;;;;2161905;66;20190;-73
2022/03/27 01:06:51;;;;;;;;;;;6.60;99.90;;;;;;2161666;66;20045;-74
2022/03/27 01:09:35;;;;;;;;;;;6.60;99.90;;;;;;2148492;66;20077;-74
2022/03/27 01:12:22;;;;;;;;;;;6.70;99.90;;;;;;2147272;66;20070;-74
2022/03/27 01:15:05;;;;;;;;;;;6.80;99.90;;;;;;2133036;67;20277;-73
2022/03/27 01:17:46;;;;;;;;;;;6.80;99.90;;;;;;2146740;66;20178;-73
2022/03/27 01:20:31;;;;;;;;;;;6.80;99.90;;;;;;2154635;66;20049;-73
2022/03/27 01:23:16;;;;;;;;;;;6.90;99.90;;;;;;2155053;66;20422;-73
2022/03/27 01:25:59;;;;;;;;;;;6.70;99.90;;;;;;2161742;66;20090;-74
2022/03/27 01:28:44;;;;;;;;;;;6.70;99.90;;;;;;2169459;65;20118;-74
2022/03/27 01:31:28;;;;;;;;;;;6.60;99.90;;;;;;2174442;65;20646;-74
2022/03/27 01:34:12;;;;;;;;;;;6.50;99.90;;;;;;2168216;66;20081;-74
2022/03/27 01:36:56;;;;;;;;;;;6.50;99.90;;;;;;2162745;66;20201;-72
2022/03/27 01:39:41;;;;;;;;;;;6.40;99.90;;;;;;2165260;66;20169;-73
2022/03/27 01:42:25;;;;;;;;;;;6.40;99.90;;;;;;2156454;66;20073;-73
2022/03/27 01:45:09;;;;;;;;;;;6.30;99.90;;;;;;2156121;66;20134;-73
2022/03/27 01:47:50;;;;;;;;;;;6.20;99.90;;;;;;2174821;65;20160;-73
2022/03/27 01:50:32;;;;;;;;;;;6.20;99.90;;;;;;2182903;65;20725;-73
2022/03/27 01:53:13;;;;;;;;;;;6.10;99.90;;;;;;2176428;65;20115;-73
2022/03/27 01:55:56;;;;;;;;;;;6.00;99.90;;;;;;2191016;65;20050;-73
2022/03/27 01:58:42;;;;;;;;;;;6.00;99.90;;;;;;2175009;65;20062;-73
2022/03/27 02:01:23;;;;;;;;;;;5.80;99.90;;;;;;2175382;65;20047;-73
2022/03/27 02:04:04;;;;;;;;;;;5.70;99.90;;;;;;2169011;66;20212;-73
2022/03/27 02:06:46;;;;;;;;;;;5.70;99.90;;;;;;2161561;66;20403;-73
2022/03/27 02:09:31;;;;;;;;;;;5.70;99.90;;;;;;2160534;66;20269;-74
2022/03/27 02:12:12;;;;;;;;;;;5.60;99.90;;;;;;2153759;66;20112;-72
2022/03/27 02:14:57;;;;;;;;;;;5.70;99.90;;;;;;2144991;66;20217;-73
2022/03/27 02:17:39;;;;;;;;;;;5.60;99.90;;;;;;2128201;67;20065;-73
2022/03/27 02:20:21;;;;;;;;;;;5.70;99.90;;;;;;1909774;67;15813692;-72
2022/03/27 02:23:03;;;;;;;;;;;5.70;99.90;;;;;;2132620;67;20605;-73
2022/03/27 02:25:46;;;;;;;;;;;5.70;99.90;;;;;;2139853;66;20136;-72
2022/03/27 02:28:30;;;;;;;;;;;5.80;99.90;;;;;;2139483;67;20240;-73
2022/03/27 02:31:13;;;;;;;;;;;5.80;99.90;;;;;;2139701;67;20199;-73
2022/03/27 02:33:54;;;;;;;;;;;5.80;99.90;;;;;;2134878;67;20094;-73
2022/03/27 02:36:37;;;;;;;;;;;5.90;99.90;;;;;;2140878;66;20046;-73
2022/03/27 02:39:21;;;;;;;;;;;5.80;99.90;;;;;;2161627;66;20641;-72
2022/03/27 02:42:03;;;;;;;;;;;5.90;99.90;;;;;;2154940;66;20113;-72
2022/03/27 02:44:46;;;;;;;;;;;5.90;99.90;;;;;;2154352;66;20190;-73
2022/03/27 02:47:30;;;;;;;;;;;5.90;99.90;;;;;;2150776;66;20074;-72
2022/03/27 02:50:12;;;;;;;;;;;5.90;99.90;;;;;;2117157;67;20108;-73
2022/03/27 02:52:53;;;;;;;;;;;5.90;99.90;;;;;;2172786;65;20204;-73
2022/03/27 02:55:35;;;;;;;;;;;5.90;99.90;;;;;;2168790;66;20715;-74
2022/03/27 02:58:17;;;;;;;;;;;5.90;99.90;;;;;;2176476;65;20141;-73
2022/03/27 03:00:58;;;;;;;;;;;5.90;99.90;;;;;;2159159;66;20699;-73
2022/03/27 03:03:42;;;;;;;;;;;5.90;99.90;;;;;;2161208;66;20053;-72
2022/03/27 03:06:24;;;;;;;;;;;5.80;99.90;;;;;;2153946;66;20046;-73
2022/03/27 03:09:05;;;;;;;;;;;5.80;99.90;;;;;;2158703;66;20046;-73
2022/03/27 03:11:47;;;;;;;;;;;5.80;99.90;;;;;;2148031;66;20140;-73
2022/03/27 03:14:28;;;;;;;;;;;5.70;99.90;;;;;;2155855;66;20071;-73
2022/03/27 03:17:13;;;;;;;;;;;5.70;99.90;;;;;;2160289;66;20211;-72
2022/03/27 03:19:54;;;;;;;;;;;5.70;99.90;;;;;;2147961;66;20613;-72
2022/03/27 03:22:40;;;;;;;;;;;5.70;99.90;;;;;;2149954;66;20074;-73
2022/03/27 03:25:22;;;;;;;;;;;5.60;99.90;;;;;;2142452;66;20202;-73
2022/03/27 03:28:04;;;;;;;;;;;5.60;99.90;;;;;;2142926;66;20188;-72
2022/03/27 03:30:45;;;;;;;;;;;5.50;99.90;;;;;;2111271;67;20082;-73
2022/03/27 03:33:28;;;;;;;;;;;5.70;99.90;;;;;;2124526;67;20115;-72
2022/03/27 03:36:16;;;;;;;;;;;5.50;99.90;;;;;;2132780;67;20070;-73
2022/03/27 03:38:57;;;;;;;;;;;5.40;99.90;;;;;;2169775;65;20153;-73
2022/03/27 03:41:40;;;;;;;;;;;5.40;99.90;;;;;;2162362;66;20052;-72
2022/03/27 03:44:26;;;;;;;;;;;5.30;99.90;;;;;;2170018;65;20612;-73
2022/03/27 03:47:10;;;;;;;;;;;5.30;99.90;;;;;;2162055;66;20220;-73
2022/03/27 03:49:52;;;;;;;;;;;5.20;99.90;;;;;;2162108;66;20251;-72
2022/03/27 03:52:33;;;;;;;;;;;5.20;99.90;;;;;;2167522;65;20088;-72
2022/03/27 03:55:16;;;;;;;;;;;5.20;99.90;;;;;;2177088;65;20202;-73
2022/03/27 03:58:00;;;;;;;;;;;5.10;99.90;;;;;;2169397;66;20158;-73
2022/03/27 04:00:42;;;;;;;;;;;5.10;99.90;;;;;;2162785;66;20116;-73
2022/03/27 04:03:24;;;;;;;;;;;5.00;99.90;;;;;;2154613;66;20181;-73
2022/03/27 04:06:07;;;;;;;;;;;5.00;99.90;;;;;;2141775;66;20101;-71
2022/03/27 04:08:51;;;;;;;;;;;4.90;99.90;;;;;;2116836;67;20049;-72
2022/03/27 04:11:33;;;;;;;;;;;4.90;99.90;;;;;;2112648;67;20170;-71
2022/03/27 04:14:14;;;;;;;;;;;4.90;99.90;;;;;;2108905;67;20630;-73
2022/03/27 04:16:57;;;;;;;;;;;4.80;99.90;;;;;;2135113;66;20189;-73
2022/03/27 04:19:42;;;;;;;;;;;4.70;99.90;;;;;;2110376;67;20142;-72
2022/03/27 04:22:26;;;;;;;;;;;4.70;99.90;;;;;;2140220;66;20351;-73
2022/03/27 04:25:10;;;;;;;;;;;4.60;99.90;;;;;;2103904;68;20094;-72
2022/03/27 04:27:54;;;;;;;;;;;4.50;99.90;;;;;;2139932;67;20158;-73
2022/03/27 04:30:39;;;;;;;;;;;4.50;99.90;;;;;;2145882;66;20546;-73
2022/03/27 04:33:23;;;;;;;;;;;4.50;99.90;;;;;;2139572;66;20200;-74
2022/03/27 04:36:08;;;;;;;;;;;4.40;99.90;;;;;;2141013;66;20098;-73
2022/03/27 04:38:52;;;;;;;;;;;4.30;99.90;;;;;;2156437;66;20189;-73
2022/03/27 04:41:35;;;;;;;;;;;4.70;99.90;;;;;;2169621;65;20095;-72
2022/03/27 04:44:19;;;;;;;;;;;4.20;99.90;;;;;;2175670;65;20193;-73
2022/03/27 04:47:01;;;;;;;;;;;4.20;99.90;;;;;;2172544;65;20129;-73
2022/03/27 04:49:45;;;;;;;;;;;4.10;99.90;;;;;;2139765;65;20792;-73
2022/03/27 04:52:32;;;;;;;;;;;4.10;99.90;;;;;;2176249;65;20678;-72
2022/03/27 04:55:15;;;;;;;;;;;4.00;99.90;;;;;;2161872;66;20053;-72
2022/03/27 04:57:56;;;;;;;;;;;4.00;99.90;;;;;;2154812;66;20122;-73
2022/03/27 05:00:38;;;;;;;;;;;3.90;99.90;;;;;;2146698;66;20105;-73
2022/03/27 05:03:20;;;;;;;;;;;3.90;99.90;;;;;;2130222;67;20145;-72
2022/03/27 05:06:04;;;;;;;;;;;3.90;99.90;;;;;;2120654;67;20202;-73
2022/03/27 05:08:45;;;;;;;;;;;3.80;99.90;;;;;;2118805;67;20153;-74
2022/03/27 05:11:28;;;;;;;;;;;3.80;99.90;;;;;;2125439;67;20078;-72
2022/03/27 05:14:12;;;;;;;;;;;3.80;99.90;;;;;;2125874;67;20073;-73
2022/03/27 05:16:53;;;;;;;;;;;3.80;99.90;;;;;;2132961;67;20103;-73
2022/03/27 05:19:39;;;;;;;;;;;3.80;99.90;;;;;;2114148;67;20074;-74
2022/03/27 05:22:25;;;;;;;;;;;3.80;99.90;;;;;;2128018;67;20061;-73
2022/03/27 05:25:11;;;;;;;;;;;3.90;99.90;;;;;;2118707;67;20218;-73
2022/03/27 05:27:58;;;;;;;;;;;3.90;99.90;;;;;;2119141;67;20611;-73
2022/03/27 05:30:41;;;;;;;;;;;3.90;99.90;;;;;;2132719;67;20077;-73
2022/03/27 05:33:25;;;;;;;;;;;4.00;99.90;;;;;;2139403;67;20085;-73
2022/03/27 05:36:07;;;;;;;;;;;4.00;99.90;;;;;;2140569;66;20074;-73
2022/03/27 05:38:51;;;;;;;;;;;4.10;99.90;;;;;;2154058;66;20119;-74
2022/03/27 05:41:36;;;;;;;;;;;4.20;99.90;;;;;;2161950;66;20739;-73
2022/03/27 05:44:18;;;;;;;;;;;4.30;99.90;;;;;;2156049;66;20158;-73
2022/03/27 05:47:00;;;;;;;;;;;4.30;99.90;;;;;;2132847;67;20626;-73
2022/03/27 05:49:44;;;;;;;;;;;4.40;99.90;;;;;;2140637;66;20118;-73
2022/03/27 05:52:28;;;;;;;;;;;4.40;99.90;;;;;;2140107;67;20051;-72
2022/03/27 05:55:12;;;;;;;;;;;4.40;99.90;;;;;;2125060;67;20070;-72
2022/03/27 05:57:54;;;;;;;;;;;4.50;99.90;;;;;;2138972;67;20075;-74
2022/03/27 06:00:35;;;;;;;;;;;4.60;99.90;;;;;;2115739;67;20186;-73
2022/03/27 06:03:17;;;;;;;;;;;4.70;99.90;;;;;;2117649;67;20202;-72
2022/03/27 06:06:00;;;;;;;;;;;4.80;99.90;;;;;;2124512;67;20106;-73
2022/03/27 06:08:45;;;;;;;;;;;4.90;99.90;;;;;;2124741;67;20201;-74
2022/03/27 06:11:29;;;;;;;;;;;5.00;99.90;;;;;;2132102;67;20052;-73
2022/03/27 06:14:11;;;;;;;;;;;5.10;99.90;;;;;;2131505;67;20208;-73
2022/03/27 06:16:52;;;;;;;;;;;5.20;99.90;;;;;;2169136;66;20079;-73
2022/03/27 06:19:37;;;;;;;;;;;5.30;99.90;;;;;;2168282;66;20186;-74
2022/03/27 06:22:19;;;;;;;;;;;5.40;99.90;;;;;;2131912;67;20203;-73
2022/03/27 06:25:02;;;;;;;;;;;5.40;99.90;;;;;;2125347;67;20115;-74
2022/03/27 06:27:45;;;;;;;;;;;5.40;99.90;;;;;;2121653;67;20609;-73
2022/03/27 06:30:30;;;;;;;;;;;5.50;99.90;;;;;;2120222;67;20061;-73
2022/03/27 06:33:14;;;;;;;;;;;5.50;99.90;;;;;;2149802;66;20130;-73
2022/03/27 06:35:58;;;;;;;;;;;5.60;99.90;;;;;;2160591;66;20110;-74
2022/03/27 06:38:42;;;;;;;;;;;5.70;99.90;;;;;;2160600;66;20206;-73
2022/03/27 06:41:24;;;;;;;;;;;5.90;99.90;;;;;;2153613;66;20209;-74
2022/03/27 06:44:06;;;;;;;;;;;6.00;99.90;;;;;;2124470;67;20205;-74
2022/03/27 06:46:47;;;;;;;;;;;6.20;99.90;;;;;;2124405;67;20060;-73
2022/03/27 06:49:28;;;;;;;;;;;6.40;99.90;;;;;;2137671;67;20072;-74
2022/03/27 06:52:11;;;;;;;;;;;6.40;99.90;;;;;;2131499;67;20056;-74
2022/03/27 06:54:55;;;;;;;;;;;6.50;99.90;;;;;;2129333;67;20592;-74
2022/03/27 06:57:37;;;;;;;;;;;6.60;99.90;;;;;;2161527;66;20069;-73
2022/03/27 07:03:22;;;;;;;;;;;6.80;99.90;;;;;;2118385;67;20187;-73
2022/03/27 07:06:05;;;;;;;;;;;6.90;99.90;;;;;;2123477;66;20626;-73
2022/03/27 07:08:50;;;;;;;;;;;6.90;99.90;;;;;;2123260;66;20069;-74
2022/03/27 07:11:32;;;;;;;;;;;7.00;99.90;;;;;;2160664;66;20089;-74
2022/03/27 07:14:18;;;;;;;;;;;7.10;99.90;;;;;;2146815;66;20146;-73
2022/03/27 07:17:02;;;;;;;;;;;7.20;99.90;;;;;;2153158;66;20203;-72
2022/03/27 07:20:03;;;;;;;;;;;7.20;99.90;;;;;;2154020;66;20652;-73
2022/03/27 07:22:45;;;;;;;;;;;7.30;99.90;;;;;;2131954;67;20518;-73
2022/03/27 07:25:28;;;;;;;;;;;7.30;99.90;;;;;;2128558;67;20098;-74
2022/03/27 07:28:10;;;;;;;;;;;7.40;99.90;;;;;;2114217;67;20688;-73
2022/03/27 07:30:52;;;;;;;;;;;7.30;99.90;;;;;;2115650;67;20313;-72
2022/03/27 07:33:33;;;;;;;;;;;7.40;99.90;;;;;;2123833;67;20688;-73
2022/03/27 07:36:15;;;;;;;;;;;7.40;99.90;;;;;;2124829;67;20048;-73
2022/03/27 07:38:57;;;;;;;;;;;7.50;99.90;;;;;;2123779;67;20156;-72
2022/03/27 07:41:39;;;;;;;;;;;7.50;99.90;;;;;;2115462;67;20050;-73
2022/03/27 07:44:20;;;;;;;;;;;7.50;99.90;;;;;;2115771;67;20201;-73
2022/03/27 07:47:03;;;;;;;;;;;7.60;99.90;;;;;;2109249;67;20335;-74
2022/03/27 07:49:44;;;;;;;;;;;7.60;99.90;;;;;;2109805;67;20583;-73
2022/03/27 07:52:27;;;;;;;;;;;7.70;99.90;;;;;;2117700;67;20090;-74
2022/03/27 07:55:10;;;;;;;;;;;7.70;99.90;;;;;;2123597;67;20634;-73
2022/03/27 07:57:52;;;;;;;;;;;7.80;99.90;;;;;;2120809;67;20049;-73
2022/03/27 08:00:40;;;;;;;;;;;7.90;99.90;;;;;;2124506;67;20157;-74
2022/03/27 08:03:24;;;;;;;;;;;7.90;99.90;;;;;;2109077;67;20066;-74
2022/03/27 08:06:08;;;;;;;;;;;7.90;99.90;;;;;;2104209;67;20082;-74
2022/03/27 08:08:56;;;;;;;;;;;8.00;99.90;;;;;;2103869;67;20137;-74
2022/03/27 08:11:43;;;;;;;;;;;8.10;99.90;;;;;;2139964;67;20146;-73
2022/03/27 08:14:31;;;;;;;;;;;8.10;99.90;;;;;;2132570;67;20056;-73
2022/03/27 08:17:17;;;;;;;;;;;8.20;99.90;;;;;;2146354;66;20207;-73
2022/03/27 08:20:03;;;;;;;;;;;8.30;99.90;;;;;;2154627;66;20570;-74
2022/03/27 08:22:48;;;;;;;;;;;8.30;99.90;;;;;;2147253;66;20066;-74
2022/03/27 08:28:29;;;;;;;;;;;8.40;99.90;;;;;;2131088;67;20096;-74
2022/03/27 08:31:11;;;;;;;;;;;8.40;99.90;;;;;;2134693;66;20082;-73
2022/03/27 08:34:00;;;;;;;;;;;8.40;99.90;;;;;;2144221;66;20117;-73
2022/03/27 08:36:46;;;;;;;;;;;8.30;99.90;;;;;;2150441;66;20229;-74
2022/03/27 08:39:31;;;;;;;;;;;8.40;99.90;;;;;;2143140;66;20494;-74
2022/03/27 08:42:17;;;;;;;;;;;8.40;99.90;;;;;;2156617;66;20334;-74
2022/03/27 08:44:58;;;;;;;;;;;8.50;99.90;;;;;;2169385;66;20193;-75
2022/03/27 08:47:40;;;;;;;;;;;8.60;99.90;;;;;;2168625;66;20077;-73
2022/03/27 08:50:38;;;;;;;;;;;8.60;99.90;;;;;;2155484;66;20113;-74
2022/03/27 08:53:22;;;;;;;;;;;8.60;99.90;;;;;;2119621;66;20248;-73
2022/03/27 08:56:06;;;;;;;;;;;8.70;99.90;;;;;;2103688;68;20126;-74
2022/03/27 08:58:50;;;;;;;;;;;8.70;99.90;;;;;;2100857;68;20076;-74
2022/03/27 09:01:32;;;;;;;;;;;8.80;99.90;;;;;;2126541;67;20202;-74
2022/03/27 09:04:15;;;;;;;;;;;8.80;99.90;;;;;;2124363;67;20803;-74
2022/03/27 09:07:03;;;;;;;;;;;8.90;99.90;;;;;;2137651;67;20693;-74
2022/03/27 09:09:47;;;;;;;;;;;8.90;99.90;;;;;;2140386;67;20667;-73
2022/03/27 09:12:29;;;;;;;;;;;8.90;99.90;;;;;;2141439;66;20604;-74
2022/03/27 09:15:11;;;;;;;;;;;9.00;99.90;;;;;;2148461;66;21617;-73
2022/03/27 09:17:57;;;;;;;;;;;8.60;99.90;;;;;;2160581;66;20192;-73
2022/03/27 09:20:47;;;;;;;;;;;9.00;99.90;;;;;;2168973;66;20185;-74
2022/03/27 09:23:35;;;;;;;;;;;9.10;99.90;;;;;;2160173;66;20045;-73
2022/03/27 09:26:17;;;;;;;;;;;9.10;99.90;;;;;;2148516;66;20071;-75
2022/03/27 09:29:10;;;;;;;;;;;9.10;99.90;;;;;;2161956;66;20137;-74
2022/03/27 09:31:58;;;;;;;;;;;9.20;99.90;;;;;;2153731;66;20055;-73
2022/03/27 09:34:57;;;;;;;;;;;9.20;99.90;;;;;;2162585;65;20230;-74
2022/03/27 09:37:42;;;;;;;;;;;9.30;99.90;;;;;;2148946;66;20201;-73
2022/03/27 09:40:35;;;;;;;;;;;9.40;99.90;;;;;;2137186;66;20079;-73
2022/03/27 09:43:21;;;;;;;;;;;9.40;99.90;;;;;;2131986;66;20674;-74
2022/03/27 09:46:06;;;;;;;;;;;9.50;99.90;;;;;;2124988;66;20158;-74
2022/03/27 09:48:57;;;;;;;;;;;9.50;99.90;;;;;;2120465;66;20127;-74
2022/03/27 09:51:56;;;;;;;;;;;9.60;99.90;;;;;;2126818;67;20132;-73
2022/03/27 09:54:46;;;;;;;;;;;9.70;99.90;;;;;;2144807;66;20156;-73
2022/03/27 09:57:35;;;;;;;;;;;9.80;99.90;;;;;;2154234;66;20093;-73
2022/03/27 10:00:19;;;;;;;;;;;9.90;99.90;;;;;;2146648;66;20733;-73
2022/03/27 10:03:09;;;;;;;;;;;10.00;99.90;;;;;;2131480;67;20138;-74
2022/03/27 10:05:51;;;;;;;;;;;10.10;99.90;;;;;;2136061;66;20486;-75
2022/03/27 10:08:34;;;;;;;;;;;10.20;99.90;;;;;;2132441;67;20142;-74
2022/03/27 10:11:18;;;;;;;;;;;10.30;99.90;;;;;;2137787;66;20126;-73
2022/03/27 10:14:03;;;;;;;;;;;10.40;99.90;;;;;;2137312;66;20134;-74
2022/03/27 10:16:47;;;;;;;;;;;10.60;99.90;;;;;;2138072;66;20063;-74
2022/03/27 10:19:33;;;;;;;;;;;10.60;99.90;;;;;;2149491;66;20067;-74
2022/03/27 10:22:20;;;;;;;;;;;10.70;99.90;;;;;;2168686;66;20167;-73
2022/03/27 10:25:05;;;;;;;;;;;10.80;99.90;;;;;;2169089;65;20505;-75
2022/03/27 10:27:47;;;;;;;;;;;10.90;99.90;;;;;;2165427;66;20129;-75
2022/03/27 10:30:30;;;;;;;;;;;11.00;99.90;;;;;;2178430;65;20163;-73
2022/03/27 10:33:16;;;;;;;;;;;11.10;99.90;;;;;;2153786;66;20742;-74
2022/03/27 10:36:10;;;;;;;;;;;11.20;99.90;;;;;;2145827;66;20142;-74
2022/03/27 10:39:03;;;;;;;;;;;11.30;99.90;;;;;;2145585;66;20047;-74
2022/03/27 10:41:59;;;;;;;;;;;11.50;99.90;;;;;;2145627;66;20578;-74
2022/03/27 10:44:52;;;;;;;;;;;11.70;99.90;;;;;;2178863;65;20060;-73
2022/03/27 10:47:35;;;;;;;;;;;12.00;99.90;;;;;;2160833;66;20445;-75
2022/03/27 10:50:20;;;;;;;;;;;12.40;99.90;;;;;;2158579;66;20235;-75
2022/03/27 10:53:01;;;;;;;;;;;12.80;99.90;;;;;;2156604;66;20046;-74
2022/03/27 10:55:44;;;;;;;;;;;13.20;99.90;;;;;;2155047;66;20223;-74
2022/03/27 10:58:39;;;;;;;;;;;13.50;99.90;;;;;;2164121;66;20080;-75
2022/03/27 11:01:23;;;;;;;;;;;13.90;99.90;;;;;;2164835;66;20052;-75
2022/03/27 11:04:06;;;;;;;;;;;14.40;99.90;;;;;;2149125;66;20163;-75
2022/03/27 11:06:50;;;;;;;;;;;14.80;99.90;;;;;;2149920;66;20129;-74
2022/03/27 11:09:34;;;;;;;;;;;15.30;99.90;;;;;;2161696;66;20045;-75
2022/03/27 11:12:25;;;;;;;;;;;15.70;99.90;;;;;;2152600;66;20114;-74
2022/03/27 11:15:07;;;;;;;;;;;16.10;99.90;;;;;;2139954;67;20224;-75
2022/03/27 11:17:55;;;;;;;;;;;16.70;99.90;;;;;;2117402;67;20262;-75
2022/03/27 11:20:47;;;;;;;;;;;17.20;99.90;;;;;;2132469;67;20175;-75
2022/03/27 11:23:31;;;;;;;;;;;17.70;99.90;;;;;;2094626;68;20284;-76
2022/03/27 11:26:21;;;;;;;;;;;18.20;99.90;;;;;;2101376;68;20200;-76
2022/03/27 11:29:19;;;;;;;;;;;18.70;99.90;;;;;;2119156;67;20533;-76
2022/03/27 11:32:24;;;;;;;;;;;19.20;97.30;;;;;;2136090;67;20554;-75
2022/03/27 11:35:13;;;;;;;;;;;19.70;73.60;;;;;;2147317;66;20109;-75
2022/03/27 11:38:23;;;;;;;;;;;20.20;83.80;;;;;;2151168;65;20127;-75
2022/03/27 11:41:24;;;;;;;;;;;20.60;78.30;;;;;;2168588;65;20247;-75
2022/03/27 11:44:18;;;;;;;;;;;21.00;74.80;;;;;;2177103;65;20291;-75
2022/03/27 11:47:01;;;;;;;;;;;21.50;72.30;;;;;;2164797;66;20300;-75
2022/03/27 11:49:45;;;;;;;;;;;22.00;66.80;;;;;;2158003;66;20097;-76
2022/03/27 11:52:28;;;;;;;;;;;22.40;65.20;;;;;;2150606;66;20099;-75
2022/03/27 11:55:14;;;;;;;;;;;22.80;62.60;;;;;;2131247;66;20288;-75
2022/03/27 11:57:56;;;;;;;;;;;23.10;58.50;;;;;;2140552;67;20196;-75
2022/03/27 12:00:40;;;;;;;;;;;23.40;55.90;;;;;;2133675;67;20195;-75
2022/03/27 12:03:24;;;;;;;;;;;23.60;54.70;;;;;;2138274;67;20138;-75
2022/03/27 12:06:13;;;;;;;;;;;23.70;51.70;;;;;;2132370;67;20144;-76
2022/03/27 12:08:58;;;;;;;;;;;24.00;53.40;;;;;;2133174;67;20148;-76
2022/03/27 12:11:40;;;;;;;;;;;24.30;51.50;;;;;;2109416;67;20521;-75
2022/03/27 12:14:21;;;;;;;;;;;24.70;51.70;;;;;;2109270;67;20130;-75
2022/03/27 12:17:03;;;;;;;;;;;25.00;49.30;;;;;;2128987;67;20091;-76
2022/03/27 12:20:00;;;;;;;;;;;25.40;48.40;;;;;;2133868;67;20135;-74
2022/03/27 12:22:47;;;;;;;;;;;25.50;48.70;;;;;;2141858;66;20422;-74
2022/03/27 12:25:34;;;;;;;;;;;25.90;48.20;;;;;;2143576;66;20506;-75
2022/03/27 12:31:23;;;;;;;;;;;26.40;44.90;;;;;;2150016;66;20046;-75
2022/03/27 12:34:04;;;;;;;;;;;26.80;44.90;;;;;;2143142;66;20515;-75
2022/03/27 12:37:14;;;;;;;;;;;27.30;44.20;;;;;;2145406;66;20073;-76
2022/03/27 12:39:55;;;;;;;;;;;27.70;43.90;;;;;;2132947;67;20135;-75
2022/03/27 12:42:43;;;;;;;;;;;28.10;41.60;;;;;;2136392;67;20055;-74
2022/03/27 12:45:32;;;;;;;;;;;28.00;41.70;;;;;;2152392;66;20091;-74
2022/03/27 12:48:39;;;;;;;;;;;28.00;41.10;;;;;;2142244;66;20071;-75
2022/03/27 12:51:22;;;;;;;;;;;28.30;41.30;;;;;;2154080;66;20201;-73
2022/03/27 12:54:10;;;;;;;;;;;28.90;41.00;;;;;;2157920;66;20065;-76
2022/03/27 12:56:57;;;;;;;;;;;29.40;38.90;;;;;;2150716;66;20183;-76
2022/03/27 12:59:45;;;;;;;;;;;29.50;38.40;;;;;;2139714;67;20701;-76
2022/03/27 13:02:30;;;;;;;;;;;29.80;38.90;;;;;;2128510;67;20052;-78
2022/03/27 13:05:14;;;;;;;;;;;29.90;38.10;;;;;;2127088;67;20664;-77
2022/03/27 13:07:57;;;;;;;;;;;30.00;37.20;;;;;;2125788;67;20189;-77
2022/03/27 13:10:39;;;;;;;;;;;30.00;37.60;;;;;;2125591;67;20056;-75
2022/03/27 13:13:30;;;;;;;;;;;30.30;38.80;;;;;;2124431;67;20061;-77
2022/03/27 13:16:30;;;;;;;;;;;30.50;38.70;;;;;;2129183;67;20177;-79
2022/03/27 13:19:11;;;;;;;;;;;30.90;38.20;;;;;;2147483;66;20215;-82
2022/03/27 13:21:56;;;;;;;;;;;31.20;38.00;;;;;;2147206;66;20058;-83
2022/03/27 13:24:38;;;;;;;;;;;31.40;37.00;;;;;;2137989;66;20170;-79
2022/03/27 13:27:21;;;;;;;;;;;31.50;37.30;;;;;;2129348;67;20061;-79
2022/03/27 13:30:07;;;;;;;;;;;31.60;37.60;;;;;;2119282;67;20258;-80
2022/03/27 13:32:51;;;;;;;;;;;31.90;38.10;;;;;;2128585;66;20117;-79
2022/03/27 13:35:32;;;;;;;;;;;32.20;37.50;;;;;;2141418;66;20051;-78
2022/03/27 13:38:16;;;;;;;;;;;32.30;36.80;;;;;;2140356;66;20539;-80
2022/03/27 13:44:01;;;;;;;;;;;32.40;37.70;;;;;;2142554;66;20098;-78
2022/03/27 13:46:42;;;;;;;;;;;32.70;37.10;;;;;;2140205;67;20107;-78
2022/03/27 13:49:26;;;;;;;;;;;32.80;36.20;;;;;;2138715;67;20264;-79
2022/03/27 13:52:09;;;;;;;;;;;32.80;36.70;;;;;;2132871;66;20067;-79
2022/03/27 13:54:47;;;;;;;;;;;32.60;36.70;;;;;;2144354;66;20439;-79
2022/03/27 13:57:25;;;;;;;;;;;32.40;36.90;;;;;;2147483;66;20102;-79
2022/03/27 14:00:01;;;;;;;;;;;32.50;36.90;;;;;;2147507;66;20074;-79
2022/03/27 14:02:37;;;;;;;;;;;32.40;36.70;;;;;;2157469;66;20057;-79
2022/03/27 14:05:28;;;;;;;;;;;32.30;36.50;;;;;;2169442;66;20181;-78
2022/03/27 14:08:05;;;;;;;;;;;32.20;36.50;;;;;;2169481;66;20141;-79
2022/03/27 14:10:41;;;;;;;;;;;32.00;37.20;;;;;;2169849;65;20623;-79
2022/03/27 14:13:20;;;;;;;;;;;32.40;36.80;;;;;;2184798;65;20043;-79
2022/03/27 14:15:57;;;;;;;;;;;32.50;36.90;;;;;;2190310;65;20123;-78
2022/03/27 14:18:36;;;;;;;;;;;32.70;36.00;;;;;;2201561;65;20041;-78
2022/03/27 14:21:50;;;;;;;;;;;32.60;35.80;;;;;;2199470;65;20073;-79
2022/03/27 14:24:26;;;;;;;;;;;32.00;36.20;;;;;;2210237;64;20048;-78
2022/03/27 14:27:03;;;;;;;;;;;31.70;36.50;;;;;;2207271;64;20195;-79
2022/03/27 14:29:41;;;;;;;;;;;31.20;36.30;;;;;;2207240;64;20103;-79
2022/03/27 14:32:12;;;;;;;;;;;30.50;36.10;;;;;;2200693;65;20119;-79
2022/03/27 14:34:55;;;;;;;;;;;30.20;37.00;;;;;;2207428;64;20553;-78
2022/03/27 14:37:24;;;;;;;;;;;30.10;37.20;;;;;;2201209;65;20175;-79
2022/03/27 14:40:15;;;;;;;;;;;29.80;36.60;;;;;;2205118;64;20057;-78
2022/03/27 14:42:51;;;;;;;;;;;30.00;37.10;;;;;;2214094;64;20063;-78
2022/03/27 14:45:41;;;;;;;;;;;29.80;36.70;;;;;;2207147;65;20062;-79
2022/03/27 14:48:21;;;;;;;;;;;30.10;36.30;;;;;;2206994;65;20075;-77
2022/03/27 14:51:00;;;;;;;;;;;29.50;36.40;;;;;;2206968;65;20483;-78
2022/03/27 14:56:44;;;;;;;;;;;29.00;36.40;;;;;;2183085;65;20620;-78
2022/03/27 14:59:29;;;;;;;;;;;28.60;35.80;;;;;;2175178;65;20510;-79
2022/03/27 15:02:11;;;;;;;;;;;28.60;36.00;;;;;;2162071;66;20181;-79
2022/03/27 15:04:52;;;;;;;;;;;28.10;35.90;;;;;;2166607;66;20069;-78
2022/03/27 15:07:34;;;;;;;;;;;27.50;35.30;;;;;;2170535;66;20154;-78
2022/03/27 15:10:15;;;;;;;;;;;26.80;35.50;;;;;;2166743;66;20208;-77
2022/03/27 15:12:57;;;;;;;;;;;26.00;35.40;;;;;;2170246;66;20532;-77
2022/03/27 15:15:39;;;;;;;;;;;25.20;35.50;;;;;;2175923;65;20067;-78
2022/03/27 15:18:20;;;;;;;;;;;24.30;35.90;;;;;;2170241;66;20692;-77
2022/03/27 15:21:03;;;;;;;;;;;23.60;36.60;;;;;;2162763;66;20137;-77
2022/03/27 15:23:47;;;;;;;;;;;22.90;37.20;;;;;;2159124;66;20525;-77
2022/03/27 15:26:29;;;;;;;;;;;22.30;37.90;;;;;;2118546;67;20107;-77
2022/03/27 15:29:13;;;;;;;;;;;21.50;39.80;;;;;;2125540;67;20537;-77
2022/03/27 15:32:02;;;;;;;;;;;20.90;40.90;;;;;;2122936;66;20285;-77
2022/03/27 15:34:46;;;;;;;;;;;20.70;41.80;;;;;;2118421;67;20749;-77
2022/03/27 15:37:28;;;;;;;;;;;20.50;43.80;;;;;;2117884;67;20176;-77
2022/03/27 15:40:17;;;;;;;;;;;20.30;43.90;;;;;;2147490;66;20249;-76
2022/03/27 15:43:03;;;;;;;;;;;20.40;44.60;;;;;;2142731;66;20114;-77
2022/03/27 15:45:45;;;;;;;;;;;20.80;45.20;;;;;;2148077;66;20144;-78
2022/03/27 15:48:27;;;;;;;;;;;21.30;44.60;;;;;;2147114;66;20146;-77
2022/03/27 15:51:09;;;;;;;;;;;21.60;44.30;;;;;;2136243;66;20628;-77
2022/03/27 15:53:56;;;;;;;;;;;21.90;44.80;;;;;;2137536;66;20050;-77
2022/03/27 15:56:42;;;;;;;;;;;22.30;44.30;;;;;;2155931;66;20242;-77
2022/03/27 15:59:23;;;;;;;;;;;22.50;43.70;;;;;;2168909;66;20504;-77
2022/03/27 16:02:07;;;;;;;;;;;22.60;44.20;;;;;;2168216;66;20052;-78
2022/03/27 16:04:48;;;;;;;;;;;22.60;43.70;;;;;;2164312;66;20223;-77
2022/03/27 16:07:30;;;;;;;;;;;22.50;43.90;;;;;;2168626;66;20109;-78
2022/03/27 16:10:15;;;;;;;;;;;22.50;44.20;;;;;;2184212;65;20152;-78
2022/03/27 16:12:57;;;;;;;;;;;22.30;44.60;;;;;;2184071;65;20203;-77
2022/03/27 16:15:38;;;;;;;;;;;21.90;45.10;;;;;;2177054;65;20605;-77
2022/03/27 16:18:23;;;;;;;;;;;21.60;44.90;;;;;;2169707;65;20242;-77
2022/03/27 16:21:04;;;;;;;;;;;21.50;45.00;;;;;;2169844;66;20197;-76